VAH weather

Capitán Av. Vidal Villagomez Toledo Airport
Vallegrande, Santa Cruz Department, Bolivia

Public forecast

Using degrees Celsius for public forecast. Weather courtesy of forecast.io.

METAR (pilot weather report)

Report is more than 6 hours old.

Retrieved 2019/02/15 13:00 UTC (20 hours ago):

SLVG 151300Z 17012KT 9999 BKN027 16/11 Q1027

TAF (pilot weather forecast)

Forecast is more than 12 hours old.

Closest forecast is El Trompillo Airport, 66.5 nm (123.2 km) NE. Retrieved 2019/02/14 18:24 UTC (2 days ago):

TAF SLET 141700Z 1418/1518 VRB02KT 9999 BKN017 FEW023TCU TX30/1419Z TN23/1510Z BECMG 1503/1506 20010KT SCT015 BKN070 BECMG 1514/1417 BKN017 FEW027CB